createdAt,value
2023-01-29T00:00:19.879Z,29.50
2023-01-29T00:02:47.981Z,33.05
2023-01-29T00:05:27.360Z,28.60
2023-01-29T00:07:56.032Z,29.50
2023-01-29T00:10:23.983Z,28.52
2023-01-29T00:12:53.125Z,28.52
2023-01-29T00:15:23.575Z,29.85
2023-01-29T00:17:51.471Z,29.75
2023-01-29T00:20:20.726Z,31.02
2023-01-29T00:22:48.823Z,29.27
2023-01-29T00:25:17.185Z,31.23
2023-01-29T00:27:45.325Z,34.15
2023-01-29T00:30:13.909Z,31.27
2023-01-29T00:32:42.052Z,30.95
2023-01-29T00:35:10.773Z,31.13
2023-01-29T00:37:39.933Z,31.58
2023-01-29T00:40:09.246Z,28.60
2023-01-29T00:43:02.979Z,32.33
2023-01-29T00:45:31.733Z,26.55
2023-01-29T00:47:59.851Z,34.58
2023-01-29T00:50:27.699Z,30.92
2023-01-29T00:52:57.194Z,34.95
2023-01-29T00:55:25.040Z,31.85
2023-01-29T00:57:52.963Z,30.52
2023-01-29T01:00:22.398Z,29.88
2023-01-29T01:03:07.499Z,29.80
2023-01-29T01:05:37.282Z,29.58
2023-01-29T01:08:27.659Z,34.25
2023-01-29T01:11:01.797Z,30.98
2023-01-29T01:13:36.158Z,33.20
2023-01-29T01:16:10.558Z,32.50
2023-01-29T01:18:39.127Z,33.30
2023-01-29T01:21:07.187Z,35.78
2023-01-29T01:23:36.909Z,30.33
2023-01-29T01:26:10.461Z,31.42
2023-01-29T01:28:38.497Z,32.22
2023-01-29T01:31:13.657Z,30.35
2023-01-29T01:33:41.978Z,31.45
2023-01-29T01:36:10.145Z,30.70
2023-01-29T01:38:44.685Z,30.48
2023-01-29T01:41:13.753Z,31.70
2023-01-29T01:43:52.358Z,31.67
2023-01-29T01:46:20.894Z,28.58
2023-01-29T01:48:52.469Z,32.83
2023-01-29T01:51:21.100Z,33.28
2023-01-29T01:53:56.612Z,32.13
2023-01-29T01:56:26.995Z,31.75
2023-01-29T01:58:56.576Z,32.05
2023-01-29T02:01:29.222Z,39.38
2023-01-29T02:04:19.299Z,30.65
2023-01-29T02:07:04.748Z,30.83
2023-01-29T02:09:40.775Z,33.05
2023-01-29T02:12:11.014Z,31.85
2023-01-29T02:14:41.388Z,32.33
2023-01-29T02:17:11.534Z,35.78
2023-01-29T02:19:45.510Z,32.92
2023-01-29T02:25:09.362Z,33.13
2023-01-29T02:28:00.896Z,33.55
2023-01-29T02:30:35.338Z,36.85
2023-01-29T02:33:11.556Z,35.40
2023-01-29T02:35:47.566Z,35.97
2023-01-29T02:38:20.476Z,34.35
2023-01-29T02:40:53.858Z,33.35
2023-01-29T02:43:31.831Z,32.45
2023-01-29T02:46:06.792Z,31.50
2023-01-29T02:48:46.693Z,35.10
2023-01-29T02:51:19.985Z,33.00
2023-01-29T02:53:53.423Z,35.63
2023-01-29T02:56:24.657Z,32.17
2023-01-29T02:58:58.492Z,30.75
2023-01-29T03:01:31.583Z,34.53
2023-01-29T03:04:03.657Z,37.97
2023-01-29T03:06:34.463Z,32.60
2023-01-29T03:09:05.900Z,31.25
2023-01-29T03:11:36.838Z,33.05
2023-01-29T03:14:08.651Z,33.13
2023-01-29T03:16:41.043Z,32.17
2023-01-29T03:19:12.344Z,33.55
2023-01-29T03:21:59.091Z,32.15
2023-01-29T03:24:54.399Z,35.22
2023-01-29T03:27:46.182Z,32.55
2023-01-29T03:30:39.708Z,31.60
2023-01-29T03:33:22.813Z,36.97
2023-01-29T03:35:54.897Z,32.60
2023-01-29T03:38:22.764Z,31.88
2023-01-29T03:40:54.440Z,33.75
2023-01-29T03:43:32.499Z,31.65
2023-01-29T03:46:06.108Z,36.40
2023-01-29T03:48:37.435Z,34.10
2023-01-29T03:51:15.662Z,33.83
2023-01-29T03:53:52.982Z,35.45
2023-01-29T03:56:35.634Z,36.60
2023-01-29T03:59:12.069Z,42.20
2023-01-29T04:02:06.112Z,32.33
2023-01-29T04:04:36.493Z,39.90
2023-01-29T04:07:10.049Z,32.95
2023-01-29T04:09:45.305Z,33.03
2023-01-29T04:12:19.060Z,36.15
2023-01-29T04:14:49.954Z,38.00
2023-01-29T04:17:21.342Z,35.28
2023-01-29T04:20:04.240Z,40.20
2023-01-29T04:22:35.768Z,35.92
2023-01-29T04:25:08.644Z,40.55
2023-01-29T04:27:50.668Z,37.40
2023-01-29T04:30:25.346Z,37.03
2023-01-29T04:33:06.429Z,38.17
2023-01-29T04:35:45.271Z,39.00
2023-01-29T04:38:22.180Z,41.08
2023-01-29T04:40:52.834Z,34.28
2023-01-29T04:43:28.899Z,36.65
2023-01-29T04:46:10.658Z,39.45
2023-01-29T04:48:50.521Z,38.05
2023-01-29T04:51:23.099Z,35.75
2023-01-29T04:53:54.934Z,39.33
2023-01-29T04:56:30.214Z,38.53
2023-01-29T04:59:02.410Z,39.78
2023-01-29T05:01:33.455Z,36.28
2023-01-29T05:04:06.083Z,37.58
2023-01-29T05:06:34.055Z,37.90
2023-01-29T05:09:03.050Z,36.20
2023-01-29T05:11:32.045Z,36.15
2023-01-29T05:14:00.539Z,35.78
2023-01-29T05:16:30.985Z,36.20
2023-01-29T05:18:59.178Z,37.72
2023-01-29T05:21:28.588Z,37.03
2023-01-29T05:24:10.765Z,38.45
2023-01-29T05:26:56.490Z,38.25
2023-01-29T05:29:25.226Z,36.20
2023-01-29T05:31:53.596Z,36.80
2023-01-29T05:34:21.595Z,37.22
2023-01-29T05:36:51.603Z,36.65
2023-01-29T05:39:19.788Z,37.72
2023-01-29T05:41:47.862Z,35.33
2023-01-29T05:44:16.072Z,39.85
2023-01-29T05:46:44.733Z,33.65
2023-01-29T05:49:12.620Z,34.05
2023-01-29T05:51:40.649Z,36.15
2023-01-29T05:54:13.359Z,35.55
2023-01-29T05:56:41.334Z,38.28
2023-01-29T05:59:09.759Z,32.45
2023-01-29T06:01:39.773Z,35.70
2023-01-29T06:04:07.809Z,36.17
2023-01-29T06:06:35.669Z,34.40
2023-01-29T06:09:03.544Z,38.83
2023-01-29T06:11:32.867Z,36.15
2023-01-29T06:14:01.483Z,33.75
2023-01-29T06:16:29.678Z,44.22
2023-01-29T06:18:57.850Z,42.35
2023-01-29T06:21:25.910Z,36.78
2023-01-29T06:23:54.156Z,36.22
2023-01-29T06:26:22.206Z,35.85
2023-01-29T06:28:51.602Z,34.65
2023-01-29T06:31:36.946Z,36.97
2023-01-29T06:34:05.959Z,36.53
2023-01-29T06:36:33.897Z,40.17
2023-01-29T06:39:01.873Z,39.83
2023-01-29T06:41:29.944Z,37.70
2023-01-29T06:44:01.498Z,40.70
2023-01-29T06:46:29.339Z,35.83
2023-01-29T06:49:00.140Z,39.72
2023-01-29T06:51:28.556Z,38.40
2023-01-29T06:53:56.538Z,43.78
2023-01-29T06:56:25.073Z,41.85
2023-01-29T06:58:52.937Z,43.25
2023-01-29T07:01:35.149Z,38.97
2023-01-29T07:04:04.663Z,42.87
2023-01-29T07:06:32.747Z,46.20
2023-01-29T07:09:00.827Z,39.75
2023-01-29T07:11:28.744Z,42.15
2023-01-29T07:13:56.563Z,45.20
2023-01-29T07:16:26.455Z,45.20
2023-01-29T07:18:54.387Z,40.85
2023-01-29T07:21:22.193Z,40.22
2023-01-29T07:23:50.125Z,40.08
2023-01-29T07:26:18.068Z,39.95
2023-01-29T07:28:48.628Z,37.88
2023-01-29T07:31:17.078Z,38.45
2023-01-29T07:33:46.853Z,40.53
2023-01-29T07:36:14.691Z,39.58
2023-01-29T07:38:42.768Z,39.60
2023-01-29T07:41:13.223Z,39.22
2023-01-29T07:43:48.451Z,38.23
2023-01-29T07:46:17.077Z,45.08
2023-01-29T07:48:49.183Z,39.92
2023-01-29T07:51:18.779Z,38.53
2023-01-29T07:53:47.338Z,41.72
2023-01-29T07:56:16.912Z,38.40
2023-01-29T07:58:48.785Z,37.72
2023-01-29T08:01:16.966Z,41.25
2023-01-29T08:03:46.167Z,40.92
2023-01-29T08:06:13.990Z,38.15
2023-01-29T08:08:42.889Z,35.90
2023-01-29T08:11:10.717Z,41.65
2023-01-29T08:13:38.650Z,41.97
2023-01-29T08:16:07.733Z,39.95
2023-01-29T08:18:37.991Z,40.17
2023-01-29T08:21:07.459Z,40.75
2023-01-29T08:23:35.514Z,37.28
2023-01-29T08:26:03.739Z,37.45
2023-01-29T08:28:31.581Z,35.50
2023-01-29T08:30:59.923Z,39.80
2023-01-29T08:36:21.252Z,38.47
2023-01-29T08:38:52.660Z,36.08
2023-01-29T08:41:20.607Z,35.70
2023-01-29T08:43:48.607Z,38.33
2023-01-29T08:46:16.533Z,33.80
2023-01-29T08:48:44.354Z,37.45
2023-01-29T08:51:12.236Z,39.80
2023-01-29T08:53:41.519Z,37.92
2023-01-29T08:56:10.089Z,38.67
2023-01-29T08:58:37.917Z,37.03
2023-01-29T09:01:10.060Z,38.28
2023-01-29T09:03:40.876Z,39.85
2023-01-29T09:06:10.635Z,35.90
2023-01-29T09:08:38.779Z,36.47
2023-01-29T09:11:10.690Z,35.20
2023-01-29T09:13:38.589Z,33.50
2023-01-29T09:16:07.193Z,35.50
2023-01-29T09:18:35.251Z,36.20
2023-01-29T09:21:03.714Z,37.30
2023-01-29T09:23:38.006Z,36.80
2023-01-29T09:26:06.142Z,33.78
2023-01-29T09:28:35.442Z,34.25
2023-01-29T09:31:03.713Z,32.22
2023-01-29T09:33:32.495Z,30.23
2023-01-29T09:36:00.221Z,33.67
2023-01-29T09:38:28.294Z,32.20
2023-01-29T09:40:59.814Z,36.25
2023-01-29T09:43:40.398Z,33.53
2023-01-29T09:46:16.645Z,32.45
2023-01-29T09:48:47.591Z,32.15
2023-01-29T09:51:26.367Z,31.95
2023-01-29T09:53:59.967Z,34.50
2023-01-29T09:56:31.588Z,28.65
2023-01-29T09:59:01.953Z,32.17
2023-01-29T10:01:35.258Z,29.90
2023-01-29T10:04:14.635Z,29.58
2023-01-29T10:06:52.521Z,31.42
2023-01-29T10:09:40.627Z,34.33
2023-01-29T10:12:20.455Z,33.08
2023-01-29T10:14:57.064Z,29.80
2023-01-29T10:17:43.234Z,26.35
2023-01-29T10:20:37.119Z,28.17
2023-01-29T10:23:24.002Z,26.50
2023-01-29T10:25:51.950Z,23.30
2023-01-29T10:28:22.708Z,23.92
2023-01-29T10:30:53.223Z,26.52
2023-01-29T10:33:27.254Z,23.45
2023-01-29T10:38:30.912Z,24.75
2023-01-29T10:41:05.652Z,22.65
2023-01-29T10:43:38.121Z,27.13
2023-01-29T10:46:15.855Z,24.95
2023-01-29T10:48:54.616Z,25.88
2023-01-29T10:51:35.321Z,24.23
2023-01-29T10:54:14.785Z,26.45
2023-01-29T10:56:52.112Z,22.95
2023-01-29T10:59:33.472Z,24.73
2023-01-29T11:02:14.444Z,26.75
2023-01-29T11:04:42.362Z,24.80
2023-01-29T11:07:10.629Z,30.85
2023-01-29T11:09:43.263Z,28.20
2023-01-29T11:12:13.814Z,29.50
2023-01-29T11:14:45.933Z,26.58
2023-01-29T11:17:19.861Z,26.38
2023-01-29T11:19:51.370Z,29.40
2023-01-29T11:22:20.985Z,25.90
2023-01-29T11:25:10.082Z,29.27
2023-01-29T11:27:44.892Z,27.70
2023-01-29T11:30:18.913Z,26.13
2023-01-29T11:32:51.828Z,28.30
2023-01-29T11:35:25.837Z,32.42
2023-01-29T11:40:35.054Z,27.70
2023-01-29T11:43:14.555Z,33.10
2023-01-29T11:45:42.350Z,36.67
2023-01-29T11:48:16.936Z,29.98
2023-01-29T11:50:45.804Z,33.05
2023-01-29T11:53:28.190Z,34.08
2023-01-29T11:55:57.881Z,31.98
2023-01-29T11:58:28.779Z,35.83
2023-01-29T12:00:58.806Z,34.05
2023-01-29T12:03:34.000Z,36.75
2023-01-29T12:06:05.048Z,33.92
2023-01-29T12:08:38.213Z,35.60
2023-01-29T12:11:12.053Z,35.10
2023-01-29T12:13:40.865Z,37.28
2023-01-29T12:16:16.820Z,38.75
2023-01-29T12:18:49.555Z,38.85
2023-01-29T12:21:22.078Z,44.40
2023-01-29T12:23:54.959Z,38.55
2023-01-29T12:26:27.115Z,38.90
2023-01-29T12:29:05.623Z,36.15
2023-01-29T12:31:38.086Z,41.13
2023-01-29T12:34:12.540Z,39.30
2023-01-29T12:36:44.116Z,43.90
2023-01-29T12:39:12.591Z,42.10
2023-01-29T12:41:46.037Z,35.72
2023-01-29T12:44:18.398Z,37.08
2023-01-29T12:46:50.498Z,38.22
2023-01-29T12:49:23.867Z,42.30
2023-01-29T12:51:56.851Z,41.85
2023-01-29T12:54:29.476Z,39.05
2023-01-29T12:56:59.705Z,40.03
2023-01-29T12:59:31.021Z,39.75
2023-01-29T13:02:01.730Z,41.05
2023-01-29T13:04:39.167Z,39.55
2023-01-29T13:07:13.331Z,42.10
2023-01-29T13:09:45.920Z,42.60
2023-01-29T13:12:15.890Z,41.80
2023-01-29T13:14:47.333Z,39.08
2023-01-29T13:17:18.949Z,39.13
2023-01-29T13:19:51.663Z,46.83
2023-01-29T13:22:23.846Z,41.50
2023-01-29T13:25:03.541Z,37.90
2023-01-29T13:27:34.429Z,41.00
2023-01-29T13:30:02.797Z,43.40
2023-01-29T13:32:31.919Z,42.45
2023-01-29T13:35:05.171Z,41.50
2023-01-29T13:37:34.781Z,40.58
2023-01-29T13:40:04.416Z,44.45
2023-01-29T13:42:40.479Z,43.25
2023-01-29T13:45:10.421Z,43.95
2023-01-29T13:47:40.235Z,41.63
2023-01-29T13:50:14.843Z,42.33
2023-01-29T13:52:45.186Z,42.13
2023-01-29T13:55:24.202Z,44.08
2023-01-29T13:57:56.736Z,42.13
2023-01-29T14:01:01.643Z,41.78
2023-01-29T14:04:06.040Z,41.80
2023-01-29T14:06:49.835Z,38.50
2023-01-29T14:10:02.740Z,41.17
2023-01-29T14:12:40.631Z,40.45
2023-01-29T14:15:30.410Z,37.20
2023-01-29T14:18:01.532Z,36.85
2023-01-29T14:20:45.101Z,37.15
2023-01-29T14:23:24.753Z,39.42
2023-01-29T14:25:53.247Z,38.10
2023-01-29T14:28:25.599Z,39.22
2023-01-29T14:30:53.955Z,38.78
2023-01-29T14:33:30.860Z,41.10
2023-01-29T14:35:59.428Z,42.05
2023-01-29T14:38:29.769Z,45.83
2023-01-29T14:41:14.044Z,42.00
2023-01-29T14:43:42.183Z,38.13
2023-01-29T14:46:45.418Z,42.60
2023-01-29T14:49:14.027Z,42.90
2023-01-29T14:51:47.328Z,41.70
2023-01-29T14:54:23.051Z,46.28
2023-01-29T14:56:58.463Z,42.00
2023-01-29T14:59:31.936Z,40.58
2023-01-29T15:02:03.429Z,39.75
2023-01-29T15:04:37.043Z,45.78
2023-01-29T15:07:07.596Z,42.88
2023-01-29T15:09:41.915Z,40.97
2023-01-29T15:12:17.417Z,41.00
2023-01-29T15:14:49.320Z,41.40
2023-01-29T15:17:20.933Z,43.75
2023-01-29T15:19:49.935Z,39.97
2023-01-29T15:22:18.830Z,45.45
2023-01-29T15:24:49.289Z,41.67
2023-01-29T15:27:21.809Z,43.00
2023-01-29T15:29:56.893Z,43.70
2023-01-29T15:32:30.775Z,44.47
2023-01-29T15:35:00.416Z,46.50
2023-01-29T15:37:30.836Z,47.58
2023-01-29T15:40:00.271Z,46.13
2023-01-29T15:42:30.770Z,42.03
2023-01-29T15:44:59.710Z,42.75
2023-01-29T15:47:31.761Z,43.83
2023-01-29T15:49:59.732Z,44.20
2023-01-29T15:52:29.850Z,40.08
2023-01-29T15:54:58.181Z,43.53
2023-01-29T15:57:34.348Z,54.55
2023-01-29T16:00:02.967Z,41.50
2023-01-29T16:02:40.637Z,46.65
2023-01-29T16:05:13.659Z,83.93
2023-01-29T16:07:42.295Z,49.17
2023-01-29T16:10:16.486Z,43.40
2023-01-29T16:12:47.450Z,44.38
2023-01-29T16:15:22.605Z,43.90
2023-01-29T16:17:52.071Z,41.58
2023-01-29T16:20:33.731Z,46.88
2023-01-29T16:23:01.903Z,44.55
2023-01-29T16:25:31.365Z,46.03
2023-01-29T16:28:05.066Z,44.45
2023-01-29T16:30:33.487Z,46.47
2023-01-29T16:33:05.988Z,43.63
2023-01-29T16:35:34.790Z,48.97
2023-01-29T16:38:05.462Z,43.08
2023-01-29T16:40:35.423Z,50.72
2023-01-29T16:43:46.327Z,46.17
2023-01-29T16:46:26.102Z,45.95
2023-01-29T16:48:54.461Z,45.28
2023-01-29T16:51:25.865Z,41.72
2023-01-29T16:53:56.542Z,39.55
2023-01-29T16:56:24.720Z,43.30
2023-01-29T16:58:54.849Z,40.80
2023-01-29T17:01:24.824Z,48.75
2023-01-29T17:03:59.876Z,42.53
2023-01-29T17:06:28.496Z,43.92
2023-01-29T17:08:56.605Z,46.88
2023-01-29T17:11:28.069Z,40.80
2023-01-29T17:13:58.395Z,40.72
2023-01-29T17:16:28.779Z,42.45
2023-01-29T17:18:56.889Z,39.63
2023-01-29T17:21:24.823Z,46.83
2023-01-29T17:23:52.989Z,42.90
2023-01-29T17:26:21.736Z,42.13
2023-01-29T17:28:54.279Z,44.30
2023-01-29T17:31:23.609Z,42.00
2023-01-29T17:33:51.966Z,43.15
2023-01-29T17:36:19.984Z,42.20
2023-01-29T17:38:47.861Z,41.90
2023-01-29T17:41:21.057Z,41.67
2023-01-29T17:43:49.124Z,46.27
2023-01-29T17:46:18.512Z,46.97
2023-01-29T17:48:49.238Z,44.15
2023-01-29T17:51:24.654Z,44.70
2023-01-29T17:53:53.125Z,50.53
2023-01-29T17:56:27.521Z,45.28
2023-01-29T17:58:55.427Z,47.83
2023-01-29T18:01:23.263Z,40.95
2023-01-29T18:03:52.517Z,43.58
2023-01-29T18:06:26.206Z,40.45
2023-01-29T18:08:54.300Z,45.70
2023-01-29T18:11:22.081Z,42.20
2023-01-29T18:13:50.027Z,41.60
2023-01-29T18:16:19.001Z,41.00
2023-01-29T18:18:46.892Z,48.55
2023-01-29T18:21:16.732Z,48.97
2023-01-29T18:23:47.672Z,43.95
2023-01-29T18:26:17.807Z,40.28
2023-01-29T18:28:45.867Z,44.83
2023-01-29T18:31:51.553Z,44.80
2023-01-29T18:34:19.611Z,42.70
2023-01-29T18:36:48.853Z,44.25
2023-01-29T18:39:17.026Z,44.80
2023-01-29T18:41:44.986Z,48.35
2023-01-29T18:44:13.887Z,49.90
2023-01-29T18:46:42.659Z,40.47
2023-01-29T18:49:10.814Z,44.10
2023-01-29T18:51:38.814Z,43.67
2023-01-29T18:54:08.095Z,43.92
2023-01-29T18:56:35.966Z,49.47
2023-01-29T18:59:06.582Z,47.80
2023-01-29T19:01:34.645Z,40.17
2023-01-29T19:04:02.634Z,40.88
2023-01-29T19:06:30.461Z,42.88
2023-01-29T19:08:58.958Z,44.50
2023-01-29T19:11:28.337Z,37.97
2023-01-29T19:13:56.057Z,40.50
2023-01-29T19:16:24.056Z,39.45
2023-01-29T19:18:53.645Z,39.28
2023-01-29T19:21:21.646Z,43.08
2023-01-29T19:23:49.679Z,42.47
2023-01-29T19:26:19.344Z,38.92
2023-01-29T19:28:48.646Z,38.35
2023-01-29T19:31:16.803Z,40.13
2023-01-29T19:33:46.545Z,37.78
2023-01-29T19:36:14.438Z,43.92
2023-01-29T19:38:42.834Z,39.88
2023-01-29T19:41:10.744Z,40.65
2023-01-29T19:43:41.999Z,41.15
2023-01-29T19:46:11.486Z,43.00
2023-01-29T19:48:39.997Z,38.05
2023-01-29T19:51:09.765Z,44.83
2023-01-29T19:53:39.015Z,42.72
2023-01-29T19:56:08.746Z,43.97
2023-01-29T19:58:39.263Z,46.97
2023-01-29T20:01:13.584Z,43.70
2023-01-29T20:03:43.191Z,44.50
2023-01-29T20:06:11.589Z,50.03
2023-01-29T20:08:39.450Z,47.40
2023-01-29T20:11:07.565Z,44.92
2023-01-29T20:13:35.782Z,47.00
2023-01-29T20:16:05.449Z,41.85
2023-01-29T20:18:33.778Z,48.38
2023-01-29T20:21:09.532Z,43.28
2023-01-29T20:23:38.993Z,49.17
2023-01-29T20:26:07.536Z,45.75
2023-01-29T20:28:36.236Z,45.38
2023-01-29T20:31:04.526Z,45.20
2023-01-29T20:33:33.643Z,44.40
2023-01-29T20:36:04.077Z,48.63
2023-01-29T20:38:32.244Z,49.20
2023-01-29T20:41:04.902Z,46.30
2023-01-29T20:43:34.357Z,49.42
2023-01-29T20:46:02.761Z,47.35
2023-01-29T20:48:31.147Z,51.65
2023-01-29T20:51:06.697Z,52.17
2023-01-29T20:53:34.607Z,54.22
2023-01-29T20:56:04.297Z,49.42
2023-01-29T20:58:33.294Z,49.05
2023-01-29T21:01:01.244Z,51.40
2023-01-29T21:03:29.218Z,57.60
2023-01-29T21:05:59.161Z,55.33
2023-01-29T21:08:28.538Z,53.28
2023-01-29T21:10:56.630Z,53.53
2023-01-29T21:13:24.421Z,45.75
2023-01-29T21:15:52.455Z,51.58
2023-01-29T21:18:20.478Z,52.45
2023-01-29T21:20:50.400Z,57.42
2023-01-29T21:23:18.207Z,54.03
2023-01-29T21:25:48.142Z,58.00
2023-01-29T21:28:16.392Z,50.28
2023-01-29T21:30:44.369Z,52.25
2023-01-29T21:33:12.489Z,52.30
2023-01-29T21:35:40.207Z,54.58
2023-01-29T21:38:08.099Z,53.97
2023-01-29T21:40:35.953Z,62.05
2023-01-29T21:43:16.300Z,56.25
2023-01-29T21:45:44.423Z,48.10
2023-01-29T21:48:13.714Z,50.15
2023-01-29T21:50:41.712Z,62.42
2023-01-29T21:53:09.554Z,67.88
2023-01-29T21:55:37.430Z,60.28
2023-01-29T21:58:06.696Z,61.83
2023-01-29T22:00:34.513Z,55.92
2023-01-29T22:03:02.444Z,61.50
2023-01-29T22:05:30.293Z,61.05
2023-01-29T22:07:58.139Z,53.33
2023-01-29T22:10:26.010Z,63.17
2023-01-29T22:12:54.218Z,62.47
2023-01-29T22:15:24.225Z,58.55
2023-01-29T22:17:52.358Z,61.38
2023-01-29T22:20:20.594Z,68.38
2023-01-29T22:22:48.425Z,70.85
2023-01-29T22:25:20.201Z,57.83
2023-01-29T22:27:48.478Z,57.28
2023-01-29T22:30:17.050Z,59.95
2023-01-29T22:32:46.434Z,64.93
2023-01-29T22:35:14.209Z,82.70
2023-01-29T22:37:42.156Z,60.78
2023-01-29T22:40:10.979Z,60.83
2023-01-29T22:42:38.866Z,58.08
2023-01-29T22:45:07.464Z,55.33
2023-01-29T22:47:35.486Z,59.22
2023-01-29T22:50:05.039Z,57.88
2023-01-29T22:52:38.475Z,58.88
2023-01-29T22:55:08.857Z,60.75
2023-01-29T22:57:37.185Z,59.88
2023-01-29T23:00:07.038Z,59.45
2023-01-29T23:02:34.858Z,59.30
2023-01-29T23:05:04.441Z,62.28
2023-01-29T23:07:32.326Z,55.58
2023-01-29T23:10:00.335Z,63.17
2023-01-29T23:12:28.240Z,56.40
2023-01-29T23:14:56.112Z,68.70
2023-01-29T23:17:24.005Z,58.13
2023-01-29T23:19:52.058Z,70.85
2023-01-29T23:22:21.394Z,56.75
2023-01-29T23:24:49.243Z,58.47
2023-01-29T23:27:16.105Z,57.55
2023-01-29T23:29:44.998Z,53.67
2023-01-29T23:32:14.270Z,53.42
2023-01-29T23:34:42.234Z,57.00
2023-01-29T23:37:10.095Z,58.05
2023-01-29T23:39:39.326Z,55.95
2023-01-29T23:42:07.335Z,67.00
2023-01-29T23:44:35.577Z,67.00
2023-01-29T23:47:03.388Z,56.30
2023-01-29T23:49:31.182Z,55.47
2023-01-29T23:51:58.883Z,60.58
2023-01-29T23:54:26.760Z,65.53
2023-01-29T23:56:55.977Z,56.13
2023-01-29T23:59:24.158Z,51.60
